Time;durP1;ratioP1;P1;durP2;ratioP2;P2;SDS_P1;SDS_P2;PMS_P1;PMS_P2;Temp;Humidity;BMP_temperature;BMP_pressure;BME280_temperature;BME280_humidity;BME280_pressure;Samples;Min_cycle;Max_cycle;Signal;HPM_P1;HPM_P2
2023/12/31 00:00:33;;;;;;;1.80;1.43;;;9.20;99.90;;;;;;5042359;28;20177;-76
2023/12/31 00:02:59;;;;;;;1.37;1.20;;;9.20;99.90;;;;;;5039398;28;20435;-76
2023/12/31 00:05:26;;;;;;;1.23;1.13;;;9.20;99.90;;;;;;5037695;28;21006;-76
2023/12/31 00:07:53;;;;;;;1.83;1.30;;;9.20;99.90;;;;;;5041793;28;20449;-75
2023/12/31 00:10:19;;;;;;;1.50;1.40;;;9.20;99.90;;;;;;5039017;28;20466;-76
2023/12/31 00:12:45;;;;;;;3.03;2.10;;;9.20;99.90;;;;;;5038811;28;20188;-75
2023/12/31 00:15:11;;;;;;;1.97;1.50;;;9.20;99.90;;;;;;5037904;28;20281;-75
2023/12/31 00:17:36;;;;;;;3.40;1.50;;;9.20;99.90;;;;;;5038665;28;20178;-75
2023/12/31 00:20:03;;;;;;;4.80;2.23;;;9.20;99.90;;;;;;5037123;28;20182;-75
2023/12/31 00:22:29;;;;;;;2.93;1.47;;;9.20;99.90;;;;;;5037869;28;20178;-76
2023/12/31 00:24:55;;;;;;;2.90;1.67;;;9.20;99.90;;;;;;5037408;28;21098;-75
2023/12/31 00:27:21;;;;;;;2.07;1.87;;;9.20;99.90;;;;;;5041307;28;20538;-76
2023/12/31 00:29:50;;;;;;;2.03;1.83;;;9.20;99.90;;;;;;5041115;28;20177;-76
2023/12/31 00:32:16;;;;;;;2.80;2.30;;;9.30;99.90;;;;;;5041425;28;20446;-75
2023/12/31 00:34:42;;;;;;;2.43;2.17;;;9.20;99.90;;;;;;5037561;28;20515;-75
2023/12/31 00:37:08;;;;;;;2.57;2.37;;;9.20;99.90;;;;;;5041594;28;21146;-76
2023/12/31 00:39:34;;;;;;;1.97;1.87;;;9.30;99.90;;;;;;5039870;28;20521;-75
2023/12/31 00:41:59;;;;;;;3.10;2.17;;;9.30;99.90;;;;;;5040811;28;20190;-75
2023/12/31 00:44:25;;;;;;;2.93;2.20;;;9.30;99.90;;;;;;5040152;28;20194;-75
2023/12/31 00:46:51;;;;;;;2.40;2.20;;;9.30;99.90;;;;;;5040374;28;20702;-75
2023/12/31 00:49:17;;;;;;;2.87;2.27;;;9.20;99.90;;;;;;5040782;28;20201;-75
2023/12/31 00:51:44;;;;;;;2.50;2.30;;;9.30;99.90;;;;;;5040168;28;20196;-75
2023/12/31 00:54:09;;;;;;;2.90;2.53;;;9.30;99.90;;;;;;5038918;28;20416;-75
2023/12/31 00:56:35;;;;;;;3.53;2.80;;;9.30;99.90;;;;;;5039450;28;20420;-75
2023/12/31 00:59:04;;;;;;;3.63;3.30;;;9.30;99.90;;;;;;5040070;28;20193;-76
2023/12/31 01:01:29;;;;;;;2.57;2.37;;;9.30;99.90;;;;;;5039795;28;20724;-76
2023/12/31 01:03:55;;;;;;;3.03;2.50;;;9.30;99.90;;;;;;5040592;28;20419;-75
2023/12/31 01:06:21;;;;;;;4.50;2.70;;;9.30;99.90;;;;;;5039107;28;20244;-75
2023/12/31 01:08:47;;;;;;;3.37;2.70;;;9.30;99.90;;;;;;5039104;28;20213;-73
2023/12/31 01:11:13;;;;;;;4.67;2.97;;;9.30;99.90;;;;;;5040658;28;20582;-75
2023/12/31 01:13:39;;;;;;;6.37;3.23;;;9.30;99.90;;;;;;5040403;28;20178;-75
2023/12/31 01:16:05;;;;;;;3.40;3.10;;;9.30;99.90;;;;;;5054815;22;20428;-74
2023/12/31 01:18:31;;;;;;;3.70;2.77;;;9.30;99.90;;;;;;5035662;28;20451;-71
2023/12/31 01:20:57;;;;;;;3.10;2.80;;;9.30;99.90;;;;;;5003478;28;20417;-73
2023/12/31 01:23:22;;;;;;;3.00;2.53;;;9.30;99.90;;;;;;5035111;28;21282;-73
2023/12/31 01:25:48;;;;;;;4.17;2.57;;;9.30;99.90;;;;;;5035897;28;20262;-73
2023/12/31 01:28:14;;;;;;;3.13;2.83;;;9.30;99.90;;;;;;5017810;28;20283;-73
2023/12/31 01:30:40;;;;;;;3.43;3.13;;;9.30;99.90;;;;;;4985988;28;20197;-73
2023/12/31 01:33:06;;;;;;;3.00;2.70;;;9.30;99.90;;;;;;5035912;28;20178;-72
2023/12/31 01:35:31;;;;;;;3.60;3.17;;;9.30;99.90;;;;;;5035699;28;20429;-74
2023/12/31 01:37:57;;;;;;;2.97;2.60;;;9.30;99.90;;;;;;5036060;28;20186;-72
2023/12/31 01:40:23;;;;;;;2.90;2.60;;;9.30;99.90;;;;;;5017184;28;20188;-75
2023/12/31 01:42:48;;;;;;;3.30;2.70;;;9.30;99.90;;;;;;5002328;28;20182;-75
2023/12/31 01:45:14;;;;;;;3.90;2.80;;;9.30;99.90;;;;;;5036098;28;20186;-75
2023/12/31 01:47:40;;;;;;;3.07;2.10;;;9.20;99.90;;;;;;5018244;28;20704;-72
2023/12/31 01:50:07;;;;;;;3.43;2.33;;;9.30;99.90;;;;;;5036660;28;20206;-72
2023/12/31 01:52:34;;;;;;;2.63;2.43;;;9.30;99.90;;;;;;5017298;28;20432;-74
2023/12/31 01:55:04;;;;;;;2.93;2.67;;;9.30;99.90;;;;;;5036500;28;20426;-72
2023/12/31 01:57:30;;;;;;;3.37;2.60;;;9.30;99.90;;;;;;5034317;28;20919;-72
2023/12/31 01:59:57;;;;;;;3.00;2.47;;;9.30;99.90;;;;;;5035995;28;20432;-73
2023/12/31 02:02:23;;;;;;;2.80;2.50;;;9.30;99.90;;;;;;5034487;28;20463;-71
2023/12/31 02:04:49;;;;;;;3.90;2.30;;;9.30;99.90;;;;;;5035437;28;21121;-73
2023/12/31 02:07:14;;;;;;;2.60;1.77;;;9.30;99.90;;;;;;5034865;28;20281;-74
2023/12/31 02:09:40;;;;;;;2.37;2.03;;;9.30;99.90;;;;;;5017832;28;20424;-74
2023/12/31 02:12:07;;;;;;;2.33;2.13;;;9.30;99.90;;;;;;5035541;28;20486;-71
2023/12/31 02:14:32;;;;;;;2.63;2.43;;;9.30;99.90;;;;;;5034345;28;20433;-74
2023/12/31 02:16:58;;;;;;;3.10;2.63;;;9.30;99.90;;;;;;5035894;28;20965;-73
2023/12/31 02:19:24;;;;;;;2.60;2.40;;;9.30;99.90;;;;;;5016576;28;20921;-74
2023/12/31 02:21:50;;;;;;;3.50;2.10;;;9.30;99.90;;;;;;5035621;28;20197;-72
2023/12/31 02:24:19;;;;;;;2.90;2.50;;;9.30;99.90;;;;;;5034426;28;20188;-72
2023/12/31 02:26:44;;;;;;;2.67;1.90;;;9.30;99.90;;;;;;5016894;28;20427;-72
2023/12/31 02:29:10;;;;;;;1.73;1.63;;;9.30;99.90;;;;;;5034942;28;20465;-74
2023/12/31 02:31:36;;;;;;;2.00;1.90;;;9.30;99.90;;;;;;5034861;28;20651;-73
2023/12/31 02:34:02;;;;;;;3.63;2.07;;;9.30;99.90;;;;;;5034853;28;20209;-73
2023/12/31 02:36:28;;;;;;;2.97;2.13;;;9.30;99.90;;;;;;5034392;28;21113;-71
2023/12/31 02:38:53;;;;;;;4.43;2.03;;;9.30;99.90;;;;;;5017268;28;20193;-72
2023/12/31 02:41:19;;;;;;;2.10;1.90;;;9.30;99.90;;;;;;5034393;28;20220;-73
2023/12/31 02:43:45;;;;;;;3.50;1.93;;;9.30;99.90;;;;;;5034591;28;20184;-75
2023/12/31 02:46:10;;;;;;;2.37;1.97;;;9.30;99.90;;;;;;5034789;28;20339;-73
2023/12/31 02:48:36;;;;;;;3.23;1.93;;;9.30;99.90;;;;;;5033484;28;20226;-74
2023/12/31 02:51:02;;;;;;;2.73;1.70;;;9.30;99.90;;;;;;5034786;28;20279;-72
2023/12/31 02:53:28;;;;;;;4.33;2.13;;;9.30;99.90;;;;;;5034093;28;20659;-74
2023/12/31 02:55:53;;;;;;;2.90;2.40;;;9.30;99.90;;;;;;5034361;28;20293;-73
2023/12/31 02:58:19;;;;;;;2.53;2.33;;;9.30;99.90;;;;;;5033232;28;20196;-73
2023/12/31 03:00:44;;;;;;;3.40;2.13;;;9.30;99.90;;;;;;5034234;28;20193;-75
2023/12/31 03:03:10;;;;;;;2.70;2.30;;;9.30;99.90;;;;;;5034731;28;20189;-72
2023/12/31 03:05:36;;;;;;;2.37;2.17;;;9.30;99.90;;;;;;5033640;28;20256;-72
2023/12/31 03:08:02;;;;;;;2.37;1.90;;;9.30;99.90;;;;;;5034824;28;20551;-72
2023/12/31 03:10:27;;;;;;;2.23;2.03;;;9.40;99.90;;;;;;5033968;28;20563;-74
2023/12/31 03:12:53;;;;;;;2.07;1.87;;;9.30;99.90;;;;;;5034518;28;20499;-73
2023/12/31 03:15:20;;;;;;;3.37;2.50;;;9.30;99.90;;;;;;5033543;28;20229;-74
2023/12/31 03:17:45;;;;;;;2.70;2.03;;;9.40;99.90;;;;;;5033754;28;20634;-73
2023/12/31 03:20:11;;;;;;;2.97;2.27;;;9.30;99.90;;;;;;5033939;28;20430;-74
2023/12/31 03:22:37;;;;;;;2.50;2.03;;;9.30;99.90;;;;;;4999892;28;20184;-73
2023/12/31 03:25:04;;;;;;;2.67;2.47;;;9.30;99.90;;;;;;5033846;28;20182;-72
2023/12/31 03:27:30;;;;;;;2.70;2.50;;;9.30;99.90;;;;;;5032806;28;20425;-73
2023/12/31 03:29:55;;;;;;;2.27;1.80;;;9.30;99.90;;;;;;5016186;28;20447;-74
2023/12/31 03:32:21;;;;;;;3.73;2.60;;;9.30;99.90;;;;;;5033607;28;20197;-74
2023/12/31 03:34:47;;;;;;;3.13;2.40;;;9.30;99.90;;;;;;5016215;28;20189;-73
2023/12/31 03:37:12;;;;;;;2.90;2.57;;;9.30;99.90;;;;;;5033220;28;20181;-73
2023/12/31 03:39:38;;;;;;;2.47;2.27;;;9.30;99.90;;;;;;5033787;28;20173;-75
2023/12/31 03:42:04;;;;;;;2.97;2.47;;;9.30;99.90;;;;;;5016084;28;20185;-72
2023/12/31 03:44:29;;;;;;;2.17;2.00;;;9.30;99.90;;;;;;5033376;28;20236;-73
2023/12/31 03:46:55;;;;;;;3.17;2.40;;;9.30;99.90;;;;;;5033737;28;20514;-75
2023/12/31 03:49:21;;;;;;;2.70;2.50;;;9.30;99.90;;;;;;5033098;28;20218;-72
2023/12/31 03:51:46;;;;;;;6.13;3.20;;;9.30;99.90;;;;;;5033886;28;20189;-72
2023/12/31 03:54:12;;;;;;;3.33;2.33;;;9.30;99.90;;;;;;5032539;28;20214;-73
2023/12/31 03:56:38;;;;;;;2.57;2.37;;;9.30;99.90;;;;;;5033692;28;20223;-73
2023/12/31 03:59:03;;;;;;;3.87;2.50;;;9.30;99.90;;;;;;5033371;28;20183;-75
2023/12/31 04:01:29;;;;;;;2.70;2.23;;;9.30;99.90;;;;;;5033587;28;20180;-72
2023/12/31 04:03:55;;;;;;;3.17;2.37;;;9.30;99.90;;;;;;5015473;28;20668;-74
2023/12/31 04:06:20;;;;;;;2.97;2.60;;;9.30;99.90;;;;;;5015272;28;20190;-75
2023/12/31 04:08:46;;;;;;;3.03;2.30;;;9.30;99.90;;;;;;5017154;28;20217;-74
2023/12/31 04:11:13;;;;;;;2.93;2.63;;;9.30;99.90;;;;;;5032724;28;20517;-74
2023/12/31 04:13:43;;;;;;;2.80;2.60;;;9.30;99.90;;;;;;5000536;28;20465;-73
2023/12/31 04:16:09;;;;;;;3.10;2.80;;;9.30;99.90;;;;;;5032837;28;20432;-71
2023/12/31 04:18:35;;;;;;;4.40;2.90;;;9.30;99.90;;;;;;5032523;28;20424;-72
2023/12/31 04:21:01;;;;;;;2.80;2.50;;;9.30;99.90;;;;;;5034019;28;20475;-72
2023/12/31 04:23:26;;;;;;;3.53;2.27;;;9.30;99.90;;;;;;5032870;28;20243;-72
2023/12/31 04:25:52;;;;;;;2.40;2.20;;;9.30;99.90;;;;;;5033401;28;20285;-72
2023/12/31 04:28:18;;;;;;;2.10;1.90;;;9.30;99.90;;;;;;5032986;28;20217;-75
2023/12/31 04:30:44;;;;;;;2.60;2.40;;;9.30;99.90;;;;;;5032922;28;20437;-73
2023/12/31 04:33:09;;;;;;;2.80;2.47;;;9.30;99.90;;;;;;5015427;28;20607;-72
2023/12/31 04:35:36;;;;;;;2.90;2.30;;;9.30;99.90;;;;;;5032126;28;20184;-72
2023/12/31 04:38:02;;;;;;;2.50;2.30;;;9.30;99.90;;;;;;5016104;28;20194;-73
2023/12/31 04:40:28;;;;;;;2.83;2.10;;;9.30;99.90;;;;;;5015283;28;20542;-74
2023/12/31 04:42:53;;;;;;;2.30;2.10;;;9.30;99.90;;;;;;5033892;28;20453;-74
2023/12/31 04:45:19;;;;;;;2.13;1.93;;;9.30;99.90;;;;;;5032234;28;20244;-72
2023/12/31 04:47:45;;;;;;;3.10;2.73;;;9.30;99.90;;;;;;5032948;28;20224;-72
2023/12/31 04:50:10;;;;;;;4.13;2.33;;;9.30;99.90;;;;;;5031969;28;20647;-73
2023/12/31 04:52:36;;;;;;;1.80;1.70;;;9.30;99.90;;;;;;5015627;28;20197;-72
2023/12/31 04:55:02;;;;;;;2.97;2.00;;;9.30;99.90;;;;;;5015053;28;20186;-75
2023/12/31 04:57:28;;;;;;;2.40;1.90;;;9.30;99.90;;;;;;5032723;28;20281;-75
2023/12/31 04:59:54;;;;;;;2.17;1.60;;;9.30;99.90;;;;;;5033261;28;20213;-72
2023/12/31 05:02:19;;;;;;;2.43;2.20;;;9.30;99.90;;;;;;5032879;28;20482;-73
2023/12/31 05:04:45;;;;;;;1.77;1.50;;;9.40;99.90;;;;;;5033337;28;20436;-75
2023/12/31 05:07:11;;;;;;;2.43;2.23;;;9.40;99.90;;;;;;5015078;28;20271;-72
2023/12/31 05:09:37;;;;;;;2.03;1.83;;;9.40;99.90;;;;;;5032846;28;20718;-72
2023/12/31 05:12:03;;;;;;;2.20;1.50;;;9.40;99.90;;;;;;5034543;28;20788;-73
2023/12/31 05:14:29;;;;;;;1.93;1.83;;;9.40;99.90;;;;;;5030032;28;20432;-73
2023/12/31 05:16:54;;;;;;;2.20;1.70;;;9.40;99.90;;;;;;5035846;28;20447;-72
2023/12/31 05:19:20;;;;;;;3.20;2.90;;;9.40;99.90;;;;;;5034060;28;20217;-74
2023/12/31 05:21:46;;;;;;;1.87;1.70;;;9.40;99.90;;;;;;5017861;28;20270;-74
2023/12/31 05:24:11;;;;;;;2.93;1.80;;;9.40;99.90;;;;;;5034710;28;20341;-75
2023/12/31 05:26:37;;;;;;;2.30;1.90;;;9.40;99.90;;;;;;5034193;28;20189;-75
2023/12/31 05:29:03;;;;;;;2.53;2.33;;;9.40;99.90;;;;;;5035831;28;20224;-75
2023/12/31 05:31:29;;;;;;;1.60;1.50;;;9.40;99.90;;;;;;5033583;28;20181;-74
2023/12/31 05:33:55;;;;;;;2.60;1.83;;;9.50;99.90;;;;;;5034986;28;20426;-76
2023/12/31 05:36:20;;;;;;;2.10;1.90;;;9.50;99.90;;;;;;5035935;28;20993;-75
2023/12/31 05:38:46;;;;;;;2.03;1.83;;;9.60;99.90;;;;;;5018622;28;20421;-74
2023/12/31 05:41:12;;;;;;;2.80;1.97;;;9.60;99.90;;;;;;5035215;28;20194;-73
2023/12/31 05:43:37;;;;;;;2.43;2.10;;;9.60;99.90;;;;;;5035760;28;20194;-73
2023/12/31 05:46:03;;;;;;;4.90;2.20;;;9.60;99.90;;;;;;5035168;28;20187;-74
2023/12/31 05:48:29;;;;;;;1.93;1.70;;;9.60;99.90;;;;;;5036046;28;20695;-73
2023/12/31 05:50:54;;;;;;;2.17;1.70;;;9.60;99.90;;;;;;5036106;28;20579;-75
2023/12/31 05:53:20;;;;;;;1.80;1.53;;;9.60;99.90;;;;;;5018114;28;20238;-74
2023/12/31 05:55:47;;;;;;;1.97;1.77;;;9.60;99.90;;;;;;5017421;28;21045;-73
2023/12/31 05:58:13;;;;;;;2.43;2.10;;;9.60;99.90;;;;;;5034826;28;20186;-73
2023/12/31 06:00:39;;;;;;;2.97;2.03;;;9.60;99.90;;;;;;5035520;28;20428;-73
2023/12/31 06:03:05;;;;;;;2.27;1.90;;;9.60;99.90;;;;;;5035280;28;20487;-75
2023/12/31 06:05:30;;;;;;;2.07;1.87;;;9.60;99.90;;;;;;5035337;28;20667;-72
2023/12/31 06:07:56;;;;;;;2.80;1.87;;;9.60;99.90;;;;;;5034688;28;20213;-74
2023/12/31 06:10:22;;;;;;;2.33;1.80;;;9.60;99.90;;;;;;5017463;28;20189;-74
2023/12/31 06:12:49;;;;;;;2.10;1.83;;;9.60;99.90;;;;;;5018107;28;20193;-74
2023/12/31 06:15:14;;;;;;;2.77;1.90;;;9.60;99.90;;;;;;5034770;28;20187;-75
2023/12/31 06:17:40;;;;;;;2.10;1.83;;;9.70;99.90;;;;;;5035698;28;20451;-73
2023/12/31 06:20:07;;;;;;;2.70;2.30;;;9.60;99.90;;;;;;5034426;28;21390;-73
2023/12/31 06:22:33;;;;;;;3.07;2.30;;;9.60;99.90;;;;;;5017103;28;20426;-76
2023/12/31 06:24:59;;;;;;;1.87;1.70;;;9.60;99.90;;;;;;5016999;28;20456;-75
2023/12/31 06:27:25;;;;;;;2.50;2.13;;;9.60;99.90;;;;;;5034854;28;20970;-75
2023/12/31 06:29:51;;;;;;;3.57;2.07;;;9.70;99.90;;;;;;5033419;28;20190;-73
2023/12/31 06:32:18;;;;;;;2.20;2.00;;;9.70;99.90;;;;;;5033637;28;20268;-74
2023/12/31 06:34:44;;;;;;;2.20;1.80;;;9.70;99.90;;;;;;5034249;28;20425;-75
2023/12/31 06:37:09;;;;;;;2.10;1.90;;;9.60;99.90;;;;;;5033912;28;20420;-75
2023/12/31 06:39:35;;;;;;;3.20;1.90;;;9.60;99.90;;;;;;5035022;28;20602;-75
2023/12/31 06:42:01;;;;;;;2.20;1.90;;;9.70;99.90;;;;;;5034473;28;20193;-74
2023/12/31 06:44:28;;;;;;;3.47;2.40;;;9.70;99.90;;;;;;5034455;28;20265;-73
2023/12/31 06:46:54;;;;;;;4.97;2.00;;;9.70;99.90;;;;;;5034648;28;20209;-75
2023/12/31 06:49:20;;;;;;;3.00;2.20;;;9.70;99.90;;;;;;5035037;28;20511;-73
2023/12/31 06:51:46;;;;;;;2.17;1.97;;;9.60;99.90;;;;;;5034943;28;20433;-73
2023/12/31 06:54:11;;;;;;;2.30;1.87;;;9.60;99.90;;;;;;5034105;28;20182;-75
2023/12/31 06:56:40;;;;;;;4.50;2.40;;;9.60;99.90;;;;;;5033560;28;20507;-75
2023/12/31 06:59:06;;;;;;;3.43;2.20;;;9.70;99.90;;;;;;5033329;28;20175;-74
2023/12/31 07:01:32;;;;;;;2.43;2.03;;;9.60;99.90;;;;;;5034214;28;20459;-74
2023/12/31 07:04:00;;;;;;;1.67;1.50;;;9.60;99.90;;;;;;5000770;28;20186;-74
2023/12/31 07:06:26;;;;;;;3.53;1.90;;;9.60;99.90;;;;;;4999383;28;20835;-72
2023/12/31 07:08:52;;;;;;;2.50;1.80;;;9.60;99.90;;;;;;5015999;28;20476;-74
2023/12/31 07:11:18;;;;;;;2.57;2.37;;;9.60;99.90;;;;;;5033563;28;20221;-75
2023/12/31 07:13:44;;;;;;;2.63;2.20;;;9.60;99.90;;;;;;4998139;28;20178;-75
2023/12/31 07:16:10;;;;;;;2.27;1.97;;;9.60;99.90;;;;;;4998389;28;20557;-74
2023/12/31 07:18:36;;;;;;;2.30;2.10;;;9.60;99.90;;;;;;5034262;28;20237;-74
2023/12/31 07:21:02;;;;;;;2.63;1.87;;;9.60;99.90;;;;;;5033515;28;20448;-74
2023/12/31 07:23:28;;;;;;;3.40;2.10;;;9.70;99.90;;;;;;5034041;28;20455;-73
2023/12/31 07:25:54;;;;;;;2.80;2.10;;;9.60;99.90;;;;;;5034482;28;20933;-73
2023/12/31 07:28:19;;;;;;;2.63;1.93;;;9.70;99.90;;;;;;5033500;28;20237;-73
2023/12/31 07:30:46;;;;;;;1.70;1.57;;;9.70;99.90;;;;;;5012810;28;20694;-74
2023/12/31 07:33:12;;;;;;;2.20;2.00;;;9.70;99.90;;;;;;5034626;28;20182;-74
2023/12/31 07:35:38;;;;;;;2.13;1.93;;;9.70;99.90;;;;;;5033840;28;20571;-74
2023/12/31 07:38:05;;;;;;;2.83;1.90;;;9.70;99.90;;;;;;5016446;28;20504;-73
2023/12/31 07:40:31;;;;;;;2.97;2.67;;;9.70;99.90;;;;;;5033566;28;20234;-74
2023/12/31 07:42:57;;;;;;;4.00;1.83;;;9.70;99.90;;;;;;5034346;28;20424;-73
2023/12/31 07:45:23;;;;;;;2.30;2.10;;;9.70;99.90;;;;;;5012328;28;20538;-75
2023/12/31 07:47:49;;;;;;;2.90;2.20;;;9.70;99.90;;;;;;5034111;28;20732;-72
2023/12/31 07:50:15;;;;;;;2.73;2.30;;;9.70;99.90;;;;;;5015169;28;20421;-73
2023/12/31 07:52:41;;;;;;;2.20;2.00;;;9.70;99.90;;;;;;5032299;28;20190;-74
2023/12/31 07:55:10;;;;;;;3.00;2.47;;;9.70;99.90;;;;;;5033769;28;20969;-75
2023/12/31 07:57:37;;;;;;;2.50;2.10;;;9.70;99.90;;;;;;5034411;28;20840;-73
2023/12/31 08:00:07;;;;;;;3.60;2.10;;;9.70;99.90;;;;;;5033564;28;20425;-74
2023/12/31 08:02:33;;;;;;;2.13;1.90;;;9.70;99.90;;;;;;5034477;28;20456;-75
2023/12/31 08:04:58;;;;;;;2.37;2.17;;;9.70;99.90;;;;;;5034102;28;20417;-72
2023/12/31 08:07:24;;;;;;;2.73;2.00;;;9.80;99.90;;;;;;5033695;28;20189;-73
2023/12/31 08:09:50;;;;;;;2.60;2.10;;;9.70;99.90;;;;;;5014781;28;20755;-72
2023/12/31 08:12:15;;;;;;;2.37;2.17;;;9.80;99.90;;;;;;5034505;28;20244;-73
2023/12/31 08:14:41;;;;;;;2.40;2.00;;;9.80;99.90;;;;;;5033590;28;20210;-75
2023/12/31 08:17:07;;;;;;;2.47;1.97;;;9.80;99.90;;;;;;5032270;28;20193;-73
2023/12/31 08:19:33;;;;;;;3.00;2.57;;;9.80;99.90;;;;;;5015445;28;20183;-75
2023/12/31 08:21:59;;;;;;;3.30;2.37;;;9.80;99.90;;;;;;5033859;28;20425;-73
2023/12/31 08:24:25;;;;;;;3.60;2.10;;;9.80;99.90;;;;;;5015713;28;20495;-75
2023/12/31 08:26:51;;;;;;;2.80;2.40;;;9.80;99.90;;;;;;5015048;28;20186;-73
2023/12/31 08:29:17;;;;;;;2.40;2.20;;;9.80;99.90;;;;;;5033584;28;20464;-73
2023/12/31 08:31:49;;;;;;;2.33;2.13;;;9.80;99.90;;;;;;5028880;28;20429;-73
2023/12/31 08:34:15;;;;;;;3.93;2.33;;;9.80;99.90;;;;;;4997540;28;21132;-74
2023/12/31 08:36:41;;;;;;;3.30;2.00;;;9.80;99.90;;;;;;5033366;28;20424;-74
2023/12/31 08:39:07;;;;;;;2.40;2.20;;;9.80;99.90;;;;;;5030514;28;20447;-74
2023/12/31 08:41:32;;;;;;;1.70;1.60;;;9.90;99.90;;;;;;5032055;28;20189;-73
2023/12/31 08:43:58;;;;;;;2.00;1.80;;;9.90;99.90;;;;;;5014627;28;20217;-74
2023/12/31 08:46:24;;;;;;;2.53;2.23;;;9.90;99.90;;;;;;5032752;28;20703;-73
2023/12/31 08:48:49;;;;;;;2.60;2.40;;;9.90;99.90;;;;;;5038017;28;20210;-74
2023/12/31 08:51:15;;;;;;;2.33;1.73;;;9.90;99.90;;;;;;5037641;28;20190;-73
2023/12/31 08:53:42;;;;;;;2.07;1.80;;;9.90;99.90;;;;;;5037445;28;20182;-74
2023/12/31 08:56:08;;;;;;;2.20;1.63;;;9.90;99.90;;;;;;5037100;28;20227;-74
2023/12/31 08:58:33;;;;;;;1.90;1.80;;;9.90;99.90;;;;;;5034561;28;21089;-75
2023/12/31 09:00:59;;;;;;;2.93;2.00;;;10.00;99.90;;;;;;5032823;28;20194;-74
2023/12/31 09:03:25;;;;;;;2.23;2.03;;;9.90;99.90;;;;;;5035001;28;20186;-74
2023/12/31 09:05:51;;;;;;;2.80;2.40;;;9.90;99.90;;;;;;5034321;28;20216;-73
2023/12/31 09:08:16;;;;;;;2.40;2.03;;;9.90;99.90;;;;;;5037279;28;20744;-75
2023/12/31 09:10:42;;;;;;;6.73;2.50;;;9.90;99.90;;;;;;5017934;28;20190;-73
2023/12/31 09:13:08;;;;;;;2.30;2.07;;;10.00;99.90;;;;;;5033407;28;20188;-75
2023/12/31 09:15:36;;;;;;;2.30;2.10;;;10.00;99.90;;;;;;5032939;28;20444;-74
2023/12/31 09:18:02;;;;;;;3.30;2.33;;;10.00;99.90;;;;;;5036081;28;20202;-75
2023/12/31 09:20:28;;;;;;;4.57;2.10;;;10.00;99.90;;;;;;5016247;28;21645;-75
2023/12/31 09:22:54;;;;;;;3.20;2.50;;;10.00;99.90;;;;;;5014851;28;20537;-75
2023/12/31 09:25:20;;;;;;;2.40;2.20;;;10.00;99.90;;;;;;5035629;28;20193;-74
2023/12/31 09:27:46;;;;;;;3.00;2.70;;;10.00;99.90;;;;;;5033422;28;20205;-75
2023/12/31 09:30:12;;;;;;;3.00;2.70;;;10.00;99.90;;;;;;5015196;28;20426;-75
2023/12/31 09:32:37;;;;;;;2.43;2.23;;;10.00;99.90;;;;;;4999916;28;20456;-73
2023/12/31 09:35:04;;;;;;;2.73;2.40;;;10.00;99.90;;;;;;5014934;28;20917;-76
2023/12/31 09:37:30;;;;;;;3.43;2.60;;;10.00;99.90;;;;;;5032144;28;20194;-75
2023/12/31 09:39:56;;;;;;;2.63;2.30;;;10.00;99.90;;;;;;5034446;28;20466;-75
2023/12/31 09:42:49;;;;;;;3.87;2.70;;;10.00;99.90;;;;;;5017722;28;20496;-75
2023/12/31 09:45:20;;;;;;;2.73;2.53;;;10.10;99.90;;;;;;5001510;28;20936;-74
2023/12/31 09:47:48;;;;;;;4.27;2.77;;;10.10;99.90;;;;;;5034862;28;20428;-74
2023/12/31 09:50:16;;;;;;;3.53;3.23;;;10.10;99.90;;;;;;5002076;28;20529;-73
2023/12/31 09:52:43;;;;;;;3.40;2.90;;;10.10;99.90;;;;;;5035628;28;20458;-74
2023/12/31 09:55:09;;;;;;;5.40;3.13;;;10.20;99.90;;;;;;5033165;28;20765;-74
2023/12/31 09:57:35;;;;;;;3.00;2.70;;;10.20;99.90;;;;;;5034695;28;20416;-73
2023/12/31 10:00:05;;;;;;;2.57;2.37;;;10.20;99.90;;;;;;5017605;28;20457;-75
2023/12/31 10:02:32;;;;;;;3.70;3.10;;;10.20;99.90;;;;;;5016388;28;20478;-75
2023/12/31 10:04:58;;;;;;;3.10;2.80;;;10.30;99.90;;;;;;5034880;28;20953;-73
2023/12/31 10:07:24;;;;;;;3.33;3.03;;;10.30;99.90;;;;;;5034869;28;20475;-74
2023/12/31 10:09:51;;;;;;;3.77;3.07;;;10.30;99.90;;;;;;5001742;28;20475;-75
2023/12/31 10:12:17;;;;;;;4.13;3.40;;;10.40;99.90;;;;;;5018025;28;20821;-74
2023/12/31 10:14:43;;;;;;;4.60;3.67;;;10.40;99.90;;;;;;5035466;28;20425;-75
2023/12/31 10:17:09;;;;;;;3.30;3.00;;;10.30;99.90;;;;;;5035633;28;20197;-75
2023/12/31 10:19:35;;;;;;;4.97;3.00;;;10.40;99.90;;;;;;5035663;28;20867;-75
2023/12/31 10:22:04;;;;;;;2.93;2.73;;;10.40;99.90;;;;;;5035457;28;20421;-74
2023/12/31 10:24:31;;;;;;;3.10;2.80;;;10.40;99.90;;;;;;5033433;28;20539;-74
2023/12/31 10:27:00;;;;;;;3.60;3.30;;;10.50;99.90;;;;;;5031594;28;20522;-74
2023/12/31 10:29:26;;;;;;;3.60;3.27;;;10.70;99.90;;;;;;5033705;28;20480;-75
2023/12/31 10:31:53;;;;;;;3.30;3.00;;;10.80;99.90;;;;;;5034017;28;20444;-73
2023/12/31 10:34:18;;;;;;;3.80;3.13;;;10.90;99.90;;;;;;5034868;28;20240;-73
2023/12/31 10:36:46;;;;;;;3.00;2.53;;;10.80;99.90;;;;;;5013960;28;20448;-75
2023/12/31 10:39:35;;;;;;;6.03;3.37;;;10.90;99.90;;;;;;5016641;28;20269;-74
2023/12/31 10:42:06;;;;;;;4.40;3.30;;;10.80;99.90;;;;;;5033227;28;20428;-74
2023/12/31 10:44:36;;;;;;;3.20;2.90;;;10.80;99.90;;;;;;5033019;28;20464;-74
2023/12/31 10:47:06;;;;;;;4.80;3.60;;;10.80;99.90;;;;;;5007113;28;20433;-74
2023/12/31 10:49:33;;;;;;;2.90;2.57;;;10.80;99.90;;;;;;5016417;28;20468;-74
2023/12/31 10:52:04;;;;;;;3.40;2.83;;;10.80;99.90;;;;;;5031478;28;20429;-74
2023/12/31 10:54:36;;;;;;;4.00;2.90;;;10.80;99.90;;;;;;5028281;28;20497;-74
2023/12/31 10:57:04;;;;;;;4.33;2.73;;;10.80;99.90;;;;;;5031326;28;21334;-74
2023/12/31 10:59:31;;;;;;;3.47;3.03;;;10.80;99.90;;;;;;5030878;28;20439;-74
2023/12/31 11:01:57;;;;;;;3.30;2.63;;;10.70;99.90;;;;;;5015464;28;21203;-74
2023/12/31 11:04:26;;;;;;;3.17;2.87;;;10.70;99.90;;;;;;5033665;28;20528;-73
2023/12/31 11:06:54;;;;;;;3.50;2.50;;;10.70;99.90;;;;;;5032985;28;20455;-74
2023/12/31 11:09:21;;;;;;;13.03;2.90;;;10.70;99.90;;;;;;5032922;28;20469;-75
2023/12/31 11:11:49;;;;;;;3.03;2.60;;;10.70;99.90;;;;;;5033563;28;20425;-74
2023/12/31 11:14:16;;;;;;;3.90;2.70;;;10.70;99.90;;;;;;5033578;28;20838;-73
2023/12/31 11:17:02;;;;;;;2.50;2.30;;;10.60;99.90;;;;;;5032863;28;20470;-74
2023/12/31 11:20:05;;;;;;;2.60;2.40;;;10.50;99.90;;;;;;5033876;28;20429;-74
2023/12/31 11:22:33;;;;;;;2.27;1.90;;;10.50;99.90;;;;;;5032454;28;20430;-74
2023/12/31 11:25:02;;;;;;;2.00;1.70;;;10.50;99.90;;;;;;5033702;28;20428;-73
2023/12/31 11:27:31;;;;;;;2.10;1.90;;;10.50;99.90;;;;;;5033871;28;21051;-74
2023/12/31 11:29:58;;;;;;;2.20;1.60;;;10.50;99.90;;;;;;5033343;28;20522;-74
2023/12/31 11:32:27;;;;;;;1.80;1.50;;;10.40;99.90;;;;;;5015778;28;20882;-74
2023/12/31 11:34:53;;;;;;;1.43;1.33;;;10.40;99.90;;;;;;5032651;28;20991;-75
2023/12/31 11:37:20;;;;;;;1.30;1.20;;;10.50;99.90;;;;;;5033962;28;20428;-74
2023/12/31 11:39:47;;;;;;;1.10;0.90;;;10.50;99.90;;;;;;5032283;28;20527;-74
2023/12/31 11:42:13;;;;;;;1.67;1.20;;;10.50;99.90;;;;;;5033840;28;20523;-74
2023/12/31 11:44:40;;;;;;;0.90;0.87;;;10.50;99.90;;;;;;5032410;28;20519;-74
2023/12/31 11:47:13;;;;;;;1.13;0.80;;;10.40;99.90;;;;;;5015872;28;20440;-75
2023/12/31 11:49:41;;;;;;;0.93;0.80;;;10.40;99.90;;;;;;5032163;28;20475;-73
2023/12/31 11:52:08;;;;;;;1.00;0.60;;;10.40;99.90;;;;;;5032504;28;20482;-74
2023/12/31 11:54:35;;;;;;;1.00;0.80;;;10.40;99.90;;;;;;5030251;28;20523;-75
2023/12/31 11:57:02;;;;;;;1.33;0.73;;;10.40;99.90;;;;;;5031656;28;20427;-73
2023/12/31 11:59:27;;;;;;;0.70;0.63;;;10.40;99.90;;;;;;5032525;28;20440;-74
2023/12/31 12:01:54;;;;;;;1.30;0.70;;;10.40;99.90;;;;;;5032324;28;20430;-74
2023/12/31 12:04:20;;;;;;;0.70;0.43;;;10.40;99.90;;;;;;5031561;28;21055;-75
2023/12/31 12:06:46;;;;;;;0.70;0.60;;;10.30;99.90;;;;;;5001653;28;21151;-75
2023/12/31 12:09:12;;;;;;;0.90;0.60;;;10.30;99.90;;;;;;5032014;28;20537;-75
2023/12/31 12:11:43;;;;;;;1.03;0.60;;;10.30;99.90;;;;;;5029077;28;20194;-75
2023/12/31 12:14:12;;;;;;;1.40;0.70;;;10.30;99.90;;;;;;5029453;28;20429;-74
2023/12/31 12:16:40;;;;;;;0.70;0.60;;;10.30;99.90;;;;;;5030548;28;20519;-74
2023/12/31 12:19:06;;;;;;;1.23;0.67;;;10.30;99.90;;;;;;5031332;28;20435;-74
2023/12/31 12:21:32;;;;;;;0.73;0.50;;;10.30;99.90;;;;;;5033867;28;20436;-74
2023/12/31 12:23:58;;;;;;;2.03;1.80;;;10.30;99.90;;;;;;5035858;28;20192;-74
2023/12/31 12:26:25;;;;;;;1.37;0.77;;;10.20;99.90;;;;;;5035907;28;20433;-75
2023/12/31 12:28:53;;;;;;;0.70;0.60;;;10.20;99.90;;;;;;5036301;28;20907;-74
2023/12/31 12:31:18;;;;;;;0.90;0.60;;;10.20;99.90;;;;;;5032792;28;20463;-73
2023/12/31 12:33:50;;;;;;;0.70;0.50;;;10.10;99.90;;;;;;5028557;28;20444;-73
2023/12/31 12:36:18;;;;;;;0.90;0.60;;;10.10;99.90;;;;;;5015384;28;20193;-74
2023/12/31 12:38:45;;;;;;;0.70;0.63;;;10.00;99.90;;;;;;5018996;28;21044;-73
2023/12/31 12:41:12;;;;;;;1.97;0.67;;;10.00;99.90;;;;;;4999878;28;20444;-75
2023/12/31 12:43:37;;;;;;;0.90;0.60;;;10.00;99.90;;;;;;5034253;28;20801;-74
2023/12/31 12:46:06;;;;;;;1.23;0.60;;;10.10;99.90;;;;;;5035572;28;20425;-75
2023/12/31 12:48:33;;;;;;;0.90;0.70;;;10.00;99.90;;;;;;5034881;28;20722;-75